Time;durP1;ratioP1;P1;durP2;ratioP2;P2;SDS_P1;SDS_P2;PMS_P1;PMS_P2;Temp;Humidity;BMP_temperature;BMP_pressure;BME280_temperature;BME280_humidity;BME280_pressure;Samples;Min_cycle;Max_cycle;Signal;HPM_P1;HPM_P2
2022/06/12 00:00:50;;;;;;;12.43;4.38;;;;;;;12.88;83.70;102277.84;5027168;28;20132;-90
2022/06/12 00:03:18;;;;;;;9.00;4.13;;;;;;;12.80;83.60;102279.66;5020217;28;20104;-90
2022/06/12 00:05:50;;;;;;;8.75;4.03;;;;;;;12.82;83.99;102282.25;5032589;28;20109;-90
2022/06/12 00:08:17;;;;;;;11.30;4.20;;;;;;;12.78;84.47;102280.53;5025187;28;20425;-90
2022/06/12 00:10:45;;;;;;;9.98;4.60;;;;;;;12.74;84.68;102284.94;5031451;28;20061;-90
2022/06/12 00:13:14;;;;;;;9.95;4.47;;;;;;;12.64;84.82;102273.72;5031556;28;20128;-90
2022/06/12 00:15:39;;;;;;;15.95;5.30;;;;;;;12.67;84.96;102275.47;5029502;28;20029;-90
2022/06/12 00:18:05;;;;;;;11.45;4.63;;;;;;;12.64;85.17;102270.28;5014105;28;20092;-90
2022/06/12 00:20:31;;;;;;;9.98;5.10;;;;;;;12.65;85.34;102280.66;5030876;28;20022;-90
2022/06/12 00:22:58;;;;;;;11.27;4.88;;;;;;;12.59;85.81;102275.53;5014968;28;20378;-90
2022/06/12 00:25:31;;;;;;;12.50;4.90;;;;;;;12.58;85.61;102279.00;5015276;28;20451;-90
2022/06/12 00:27:57;;;;;;;13.52;5.35;;;;;;;12.54;86.14;102271.25;5032684;28;20112;-90
2022/06/12 00:30:25;;;;;;;13.73;5.10;;;;;;;12.62;86.71;102279.84;5030258;28;20502;-90
2022/06/12 00:32:52;;;;;;;11.68;4.60;;;;;;;12.55;86.17;102276.44;5030510;28;20458;-91
2022/06/12 00:35:23;;;;;;;10.38;4.57;;;;;;;12.53;86.65;102274.72;5013492;28;20101;-90
2022/06/12 00:37:49;;;;;;;12.25;5.38;;;;;;;12.49;86.94;102262.59;5012237;28;20059;-90
2022/06/12 00:40:14;;;;;;;9.90;5.05;;;;;;;12.51;85.86;102269.53;5026880;28;20026;-90
2022/06/12 00:42:46;;;;;;;11.63;4.93;;;;;;;12.58;86.76;102278.13;5031381;28;20052;-90
2022/06/12 00:45:41;;;;;;;12.00;5.38;;;;;;;12.62;85.90;102274.66;5017605;28;20025;-90
2022/06/12 00:48:17;;;;;;;12.40;5.32;;;;;;;12.59;86.77;102275.53;5028177;28;20045;-90
2022/06/12 00:50:47;;;;;;;12.65;5.10;;;;;;;12.57;86.70;102281.59;5005219;28;20467;-90
2022/06/12 00:53:20;;;;;;;12.98;5.35;;;;;;;12.51;86.61;102271.25;5014623;28;20463;-90
2022/06/12 00:55:56;;;;;;;11.43;5.65;;;;;;;12.49;86.51;102275.59;5031624;28;20029;-91
2022/06/12 00:58:24;;;;;;;12.43;5.75;;;;;;;12.44;86.85;102274.78;5031254;28;20025;-90
2022/06/12 01:00:50;;;;;;;11.60;5.97;;;;;;;12.40;87.14;102280.91;5027820;28;20084;-90
2022/06/12 01:03:17;;;;;;;12.95;5.95;;;;;;;12.33;87.22;102272.28;5031382;28;20036;-90
2022/06/12 01:08:29;;;;;;;11.65;5.53;;;;;;;12.33;87.51;102272.28;5028279;28;20442;-91
2022/06/12 01:10:58;;;;;;;15.45;5.75;;;;;;;12.29;87.79;102273.16;5011314;28;20029;-90
2022/06/12 01:13:27;;;;;;;11.10;5.75;;;;;;;12.25;87.64;102268.88;5031263;28;20040;-91
2022/06/12 01:15:57;;;;;;;11.20;5.60;;;;;;;12.19;87.44;102264.59;5029185;28;20064;-90
2022/06/12 01:18:27;;;;;;;13.15;5.95;;;;;;;12.20;87.78;102281.94;5028386;28;20022;-90
2022/06/12 01:21:25;;;;;;;13.68;5.72;;;;;;;12.15;87.20;102278.47;5028205;28;20034;-90
2022/06/12 01:24:09;;;;;;;14.48;5.63;;;;;;;12.10;87.61;102284.59;4999380;28;20497;-91
2022/06/12 01:26:50;;;;;;;11.07;5.15;;;;;;;12.05;87.86;102287.22;5034285;28;20048;-90
2022/06/12 01:29:35;;;;;;;9.45;5.15;;;;;;;12.03;87.74;102277.69;5028340;28;20045;-91
2022/06/12 01:32:12;;;;;;;9.05;4.65;;;;;;;12.00;87.71;102272.53;5022401;28;20025;-90
2022/06/12 01:34:52;;;;;;;14.45;5.47;;;;;;;11.96;87.59;102274.28;5009465;28;20063;-91
2022/06/12 01:37:27;;;;;;;11.55;5.93;;;;;;;11.92;87.96;102276.91;5030730;28;20029;-91
2022/06/12 01:39:52;;;;;;;;;;;;;;;11.99;85.10;102276.00;5007118;28;20025;-91
2022/06/12 01:42:41;;;;;;;10.00;5.17;;;;;;;11.93;88.04;102265.66;5034180;28;19935;-90
2022/06/12 01:45:41;;;;;;;10.73;5.38;;;;;;;11.88;88.28;102269.13;5025965;28;20375;-91
2022/06/12 01:48:16;;;;;;;10.93;5.45;;;;;;;11.84;88.32;102267.44;5015040;28;20080;-90
2022/06/12 01:50:58;;;;;;;9.85;5.25;;;;;;;11.85;88.85;102263.09;5027491;28;20040;-90
2022/06/12 01:53:39;;;;;;;13.07;5.30;;;;;;;11.80;88.69;102267.47;5039892;28;20028;-90
2022/06/12 01:56:14;;;;;;;12.82;5.30;;;;;;;11.77;89.35;102265.75;5018428;28;20029;-90
2022/06/12 01:59:00;;;;;;;9.73;5.50;;;;;;;11.72;88.91;102264.88;5008791;28;20033;-90
2022/06/12 02:01:30;;;;;;;10.98;5.32;;;;;;;11.67;89.04;102264.03;5005952;28;20053;-90
2022/06/12 02:04:40;;;;;;;12.80;5.55;;;;;;;11.58;88.57;102258.91;5013437;28;20561;-89
2022/06/12 02:07:18;;;;;;;10.85;5.40;;;;;;;11.59;89.38;102260.63;5031021;28;20033;-90
2022/06/12 02:09:59;;;;;;;12.30;5.50;;;;;;;11.57;89.84;102258.91;5037396;28;20025;-90
2022/06/12 02:15:20;;;;;;;12.10;5.63;;;;;;;11.49;89.80;102265.00;5030370;28;20441;-90
2022/06/12 02:17:49;;;;;;;;;;;;;;;11.51;86.50;102259.78;5030375;28;20603;-90
2022/06/12 02:20:18;;;;;;;10.90;5.60;;;;;;;11.45;89.90;102275.41;5036486;28;19924;-90
2022/06/12 02:22:46;;;;;;;11.55;5.68;;;;;;;11.40;90.01;102277.13;5028392;28;20026;-90
2022/06/12 02:25:24;;;;;;;12.48;5.18;;;;;;;11.38;90.42;102277.16;5012131;28;20394;-90
2022/06/12 02:27:56;;;;;;;16.73;5.70;;;;;;;11.35;90.22;102271.97;5030767;28;20390;-90
2022/06/12 02:30:30;;;;;;;14.27;6.30;;;;;;;11.35;90.65;102276.28;5028823;28;20032;-89
2022/06/12 02:33:01;;;;;;;11.40;5.50;;;;;;;11.36;90.88;102278.03;5027683;28;20056;-90
2022/06/12 02:35:40;;;;;;;13.18;6.05;;;;;;;11.35;91.20;102269.38;5011762;28;20025;-90
2022/06/12 02:38:13;;;;;;;12.25;6.03;;;;;;;11.34;91.09;102259.00;5013572;28;20041;-90
2022/06/12 02:40:48;;;;;;;10.98;5.55;;;;;;;11.36;90.69;102263.31;5009196;28;20037;-90
2022/06/12 02:43:18;;;;;;;11.35;5.55;;;;;;;11.34;91.18;102252.06;5029808;28;20032;-90
2022/06/12 02:45:54;;;;;;;12.60;5.47;;;;;;;11.34;90.98;102261.59;5037030;28;20029;-90
2022/06/12 02:48:20;;;;;;;14.30;5.50;;;;;;;11.32;91.23;102245.19;5029261;28;20033;-90
2022/06/12 02:51:15;;;;;;;15.63;5.82;;;;;;;11.35;91.17;102245.16;5026969;28;20132;-90
2022/06/12 02:54:08;;;;;;;11.13;5.47;;;;;;;11.32;91.09;102246.03;5029492;28;20075;-90
2022/06/12 02:56:53;;;;;;;11.93;5.22;;;;;;;11.24;90.82;102237.41;5012109;28;20061;-90
2022/06/12 02:59:43;;;;;;;14.48;5.70;;;;;;;11.30;90.73;102247.78;5027877;28;20032;-90
2022/06/12 03:02:33;;;;;;;13.85;5.55;;;;;;;11.26;90.56;102235.66;5009990;28;20509;-90
2022/06/12 03:05:20;;;;;;;12.63;5.57;;;;;;;11.26;90.95;102237.41;5030168;28;20391;-90
2022/06/12 03:07:46;;;;;;;10.05;5.40;;;;;;;11.25;91.68;102238.28;5030258;28;20494;-90
2022/06/12 03:10:17;;;;;;;14.80;5.90;;;;;;;11.22;91.68;102246.06;5029606;28;20486;-91
2022/06/12 03:12:44;;;;;;;14.55;6.00;;;;;;;11.24;91.65;102252.13;5031151;28;20029;-90
2022/06/12 03:15:39;;;;;;;9.52;5.03;;;;;;;11.25;91.04;102249.53;5030753;28;20112;-90
2022/06/12 03:18:25;;;;;;;10.93;5.20;;;;;;;11.25;91.91;102257.31;5028548;28;20122;-90
2022/06/12 03:21:23;;;;;;;14.13;5.68;;;;;;;11.28;91.62;102259.00;5028730;28;20037;-90
2022/06/12 03:24:06;;;;;;;13.20;5.65;;;;;;;11.31;91.67;102261.63;5029009;28;20108;-90
2022/06/12 03:27:09;;;;;;;14.00;5.80;;;;;;;11.31;91.79;102265.06;5028929;28;20033;-90
2022/06/12 03:29:46;;;;;;;11.65;5.82;;;;;;;11.37;92.39;102259.84;5029191;28;20045;-90
2022/06/12 03:32:19;;;;;;;11.55;5.47;;;;;;;11.38;92.46;102252.94;5028045;28;20064;-90
2022/06/12 03:34:54;;;;;;;10.25;5.28;;;;;;;11.39;92.55;102252.94;5027746;28;20079;-90
2022/06/12 03:37:43;;;;;;;11.48;5.53;;;;;;;11.44;92.92;102255.50;5028451;28;20041;-90
2022/06/12 03:40:15;;;;;;;12.90;5.32;;;;;;;11.43;92.83;102249.44;5017247;28;20032;-90
2022/06/12 03:42:53;;;;;;;17.08;5.85;;;;;;;11.52;92.78;102256.34;5008897;28;20564;-90
2022/06/12 03:45:29;;;;;;;16.20;5.50;;;;;;;11.53;92.12;102260.66;5008556;28;20542;-90
2022/06/12 03:48:02;;;;;;;19.05;5.68;;;;;;;11.56;92.85;102263.22;5012055;28;20024;-91
2022/06/12 03:50:46;;;;;;;12.70;5.50;;;;;;;11.59;92.46;102255.44;5027279;28;20080;-90
2022/06/12 03:53:34;;;;;;;13.80;6.30;;;;;;;11.61;92.57;102258.00;5017485;28;20494;-90
2022/06/12 03:59:13;;;;;;;14.88;5.35;;;;;;;11.70;93.17;102260.56;5025140;28;20044;-91
2022/06/12 04:01:42;;;;;;;15.07;5.85;;;;;;;11.68;93.03;102257.97;5002702;28;20041;-90
2022/06/12 04:04:08;;;;;;;15.85;6.32;;;;;;;11.70;92.79;102258.81;5008254;28;20033;-89
2022/06/12 04:06:35;;;;;;;17.73;5.30;;;;;;;11.74;92.01;102265.75;5026581;28;20036;-90
2022/06/12 04:09:15;;;;;;;11.32;5.75;;;;;;;11.75;92.55;102262.28;5030582;28;20463;-90
2022/06/12 04:11:42;;;;;;;17.80;5.75;;;;;;;11.79;92.97;102255.34;5009271;28;20498;-91
2022/06/12 04:14:13;;;;;;;17.02;6.22;;;;;;;11.80;92.70;102259.69;5032781;28;20083;-90
2022/06/12 04:16:54;;;;;;;13.07;5.50;;;;;;;11.80;92.57;102255.31;5033037;28;20025;-90
2022/06/12 04:19:23;;;;;;;14.43;5.57;;;;;;;11.92;92.64;102263.94;5032949;28;20018;-90
2022/06/12 04:22:09;;;;;;;13.13;5.50;;;;;;;11.95;92.77;102256.97;5028681;28;20442;-90
2022/06/12 04:24:45;;;;;;;16.38;6.38;;;;;;;12.00;93.40;102259.53;5013725;28;20030;-90
2022/06/12 04:27:22;;;;;;;19.15;6.35;;;;;;;12.03;92.99;102259.50;5013063;28;20033;-90
2022/06/12 04:29:59;;;;;;;15.80;5.97;;;;;;;12.08;93.31;102258.59;5029317;28;20030;-90
2022/06/12 04:32:26;;;;;;;11.85;5.97;;;;;;;12.16;93.17;102258.53;5027729;28;20032;-89
2022/06/12 04:34:53;;;;;;;15.93;6.05;;;;;;;12.20;92.73;102258.53;5030380;28;20091;-90
2022/06/12 04:37:30;;;;;;;11.90;5.63;;;;;;;12.23;90.92;102263.69;5026700;28;20030;-91
2022/06/12 04:39:55;;;;;;;17.35;6.35;;;;;;;12.26;92.21;102252.41;5021894;28;20033;-90
2022/06/12 04:42:24;;;;;;;15.77;6.53;;;;;;;12.36;92.01;102271.38;5012515;28;20063;-91
2022/06/12 04:44:50;;;;;;;17.00;6.10;;;;;;;12.40;90.74;102270.50;5032400;28;20116;-90
2022/06/12 04:47:20;;;;;;;13.90;6.07;;;;;;;12.43;91.32;102268.72;5032827;28;20025;-90
2022/06/12 04:49:46;;;;;;;19.05;7.18;;;;;;;12.49;89.50;102267.81;5031724;28;20024;-90
2022/06/12 04:52:12;;;;;;;17.33;6.68;;;;;;;12.56;89.09;102274.69;5031940;28;20514;-90
2022/06/12 04:54:41;;;;;;;16.48;6.25;;;;;;;12.59;87.03;102267.72;5013150;28;20099;-90
2022/06/12 04:57:07;;;;;;;18.45;6.15;;;;;;;12.62;85.93;102264.25;5013630;28;20033;-89
2022/06/12 04:59:34;;;;;;;16.05;6.60;;;;;;;12.70;87.29;102278.00;5034763;28;20382;-90
2022/06/12 05:02:00;;;;;;;20.38;6.75;;;;;;;12.75;87.18;102271.06;5033414;28;20059;-89
2022/06/12 05:04:29;;;;;;;18.20;7.10;;;;;;;12.82;86.10;102269.25;5019753;28;20063;-90
2022/06/12 05:06:55;;;;;;;17.75;6.25;;;;;;;12.86;86.09;102266.59;5013541;28;20060;-90
2022/06/12 05:09:24;;;;;;;17.27;6.10;;;;;;;12.90;85.56;102262.19;5031808;28;20021;-89
2022/06/12 05:11:50;;;;;;;14.65;6.18;;;;;;;12.97;84.85;102261.25;5013459;28;20032;-89
2022/06/12 05:14:16;;;;;;;18.00;6.28;;;;;;;13.04;85.42;102268.13;5029263;28;20052;-89
2022/06/12 05:16:49;;;;;;;16.83;6.43;;;;;;;13.10;88.64;102262.84;5031349;28;20029;-90
2022/06/12 05:19:18;;;;;;;19.00;6.67;;;;;;;13.14;86.88;102259.38;5010913;28;20037;-90
2022/06/12 05:21:45;;;;;;;20.30;6.38;;;;;;;13.19;87.57;102261.91;5029082;28;20033;-90
2022/06/12 05:24:11;;;;;;;19.83;6.88;;;;;;;13.26;86.10;102261.81;5030354;28;20033;-90
2022/06/12 05:26:41;;;;;;;16.60;6.22;;;;;;;13.33;84.94;102267.81;5032183;28;20116;-90
2022/06/12 05:29:17;;;;;;;20.00;6.43;;;;;;;13.37;83.44;102265.16;5027580;28;20155;-89
2022/06/12 05:31:44;;;;;;;17.25;6.57;;;;;;;13.47;84.56;102270.25;5023684;28;20041;-89
2022/06/12 05:34:09;;;;;;;16.90;6.10;;;;;;;13.55;84.94;102265.81;5030505;28;20025;-89
2022/06/12 05:36:34;;;;;;;17.35;6.35;;;;;;;13.57;82.54;102264.06;5030296;28;20045;-89
2022/06/12 05:39:00;;;;;;;18.70;6.22;;;;;;;13.62;82.88;102262.25;5030357;28;20163;-89
2022/06/12 05:41:26;;;;;;;20.77;7.03;;;;;;;13.71;82.16;102264.75;5031961;28;20030;-90
2022/06/12 05:43:51;;;;;;;21.80;6.22;;;;;;;13.77;82.21;102273.31;5027535;28;20154;-89
2022/06/12 05:46:17;;;;;;;18.70;6.00;;;;;;;13.85;82.40;102266.22;5028044;28;20079;-89
2022/06/12 05:48:44;;;;;;;22.45;6.43;;;;;;;13.92;82.03;102266.19;5033589;28;20009;-89
2022/06/12 05:51:13;;;;;;;19.35;5.93;;;;;;;13.98;82.49;102271.28;5028787;28;20025;-89
2022/06/12 05:53:39;;;;;;;18.98;6.22;;;;;;;14.05;82.30;102267.72;5030921;28;20549;-89
2022/06/12 05:56:09;;;;;;;19.85;6.20;;;;;;;14.14;81.93;102271.03;5031188;28;20033;-89
2022/06/12 05:58:36;;;;;;;19.58;5.97;;;;;;;14.22;82.47;102282.19;5027847;28;20026;-89
2022/06/12 06:01:04;;;;;;;23.20;6.15;;;;;;;14.27;83.76;102265.59;5025817;28;20455;-88
2022/06/12 06:03:29;;;;;;;19.52;5.95;;;;;;;14.37;82.80;102277.63;5027476;28;20486;-89
2022/06/12 06:05:55;;;;;;;27.25;6.70;;;;;;;14.43;81.95;102282.78;5032729;28;20029;-90
2022/06/12 06:08:20;;;;;;;24.48;6.45;;;;;;;14.53;82.11;102279.97;5030187;28;20053;-89
2022/06/12 06:10:46;;;;;;;20.75;6.50;;;;;;;14.56;82.41;102266.88;5028834;28;20065;-89
2022/06/12 06:13:11;;;;;;;22.35;6.28;;;;;;;14.70;82.67;102281.44;5031423;28;20025;-90
2022/06/12 06:15:37;;;;;;;19.13;6.32;;;;;;;14.78;81.91;102277.81;5012117;28;20049;-90
2022/06/12 06:18:04;;;;;;;22.92;6.95;;;;;;;14.86;81.76;102288.13;5027808;28;20163;-90
2022/06/12 06:20:33;;;;;;;25.58;6.97;;;;;;;14.91;81.57;102278.44;5012607;28;20029;-90
2022/06/12 06:22:59;;;;;;;25.02;6.80;;;;;;;15.03;81.69;102286.03;5011444;28;20053;-90
2022/06/12 06:25:26;;;;;;;24.27;6.63;;;;;;;15.13;81.99;102286.72;5017386;28;20037;-90
2022/06/12 06:27:52;;;;;;;26.00;6.25;;;;;;;15.25;81.65;102287.34;5036809;28;20017;-89
2022/06/12 06:30:19;;;;;;;23.95;6.78;;;;;;;15.39;81.89;102293.16;5034877;28;20112;-90
2022/06/12 06:32:45;;;;;;;20.58;6.30;;;;;;;15.51;81.86;102294.66;5026454;28;20390;-92
2022/06/12 06:35:12;;;;;;;21.63;6.90;;;;;;;15.62;80.30;102292.72;5033983;28;20033;-91
2022/06/12 06:37:41;;;;;;;21.55;6.68;;;;;;;15.72;80.43;102291.63;5007420;28;20434;-92
2022/06/12 06:40:09;;;;;;;25.08;6.30;;;;;;;15.76;81.92;102290.63;5029137;28;20525;-92
2022/06/12 06:42:35;;;;;;;24.02;6.90;;;;;;;15.86;80.20;102293.06;5009622;28;20033;-91
2022/06/12 06:47:45;;;;;;;23.88;7.18;;;;;;;16.12;79.67;102299.41;5033936;28;20512;-92
2022/06/12 06:50:13;;;;;;;22.63;7.30;;;;;;;16.34;81.03;102298.91;5034372;28;20257;-90
2022/06/12 06:52:39;;;;;;;23.80;7.13;;;;;;;16.65;78.15;102306.91;5022584;28;20041;-91
2022/06/12 06:55:05;;;;;;;21.40;6.72;;;;;;;16.96;78.51;102298.19;5003455;28;20021;-91
2022/06/12 06:57:31;;;;;;;24.42;6.60;;;;;;;17.15;77.89;102289.81;5013010;28;20033;-91
2022/06/12 06:59:56;;;;;;;21.45;6.68;;;;;;;17.31;74.56;102299.84;5030382;28;20060;-90
2022/06/12 07:02:22;;;;;;;22.77;7.60;;;;;;;17.41;76.10;102299.56;5016138;28;20032;-90
2022/06/12 07:04:47;;;;;;;22.80;7.68;;;;;;;17.61;75.43;102299.88;5013810;28;20092;-90
2022/06/12 07:07:16;;;;;;;23.38;6.70;;;;;;;17.86;73.55;102300.88;5015680;28;20040;-90
2022/06/12 07:09:41;;;;;;;17.92;6.70;;;;;;;18.03;75.24;102302.97;5029001;28;20025;-91
2022/06/12 07:12:08;;;;;;;19.90;6.30;;;;;;;18.06;73.64;102293.25;5028079;28;20029;-91
2022/06/12 07:14:33;;;;;;;16.45;6.10;;;;;;;18.28;73.17;102297.81;5011520;28;20025;-91
2022/06/12 07:16:59;;;;;;;24.20;6.47;;;;;;;18.40;71.49;102294.78;5028716;28;20091;-92
2022/06/12 07:19:26;;;;;;;26.13;6.63;;;;;;;18.40;71.90;102300.88;5028942;28;20037;-90
2022/06/12 07:21:52;;;;;;;22.50;6.47;;;;;;;18.54;72.06;102303.06;5026950;28;20028;-91
2022/06/12 07:24:17;;;;;;;22.50;6.13;;;;;;;18.59;69.46;102301.16;5029862;28;20033;-90
2022/06/12 07:26:45;;;;;;;20.20;5.63;;;;;;;18.61;70.27;102309.84;5012744;28;20112;-91
2022/06/12 07:29:12;;;;;;;19.23;5.95;;;;;;;18.65;71.71;102300.09;5002300;28;20029;-90
2022/06/12 07:31:48;;;;;;;21.90;6.60;;;;;;;18.82;72.05;102303.00;5030203;28;20053;-91
2022/06/12 07:34:14;;;;;;;17.00;6.20;;;;;;;18.96;69.94;102311.28;5037214;28;20494;-90
2022/06/12 07:36:46;;;;;;;20.90;5.90;;;;;;;19.18;70.05;102309.56;5010870;28;20029;-90
2022/06/12 07:39:17;;;;;;;18.48;6.18;;;;;;;19.57;68.18;102302.03;5010629;28;20096;-91
2022/06/12 07:41:43;;;;;;;23.77;6.72;;;;;;;19.85;64.99;102308.88;5028269;28;20025;-92
2022/06/12 07:44:14;;;;;;;17.83;5.88;;;;;;;19.89;66.33;102310.44;5023464;28;20498;-91
2022/06/12 07:46:40;;;;;;;20.60;5.53;;;;;;;19.86;66.30;102302.66;5004254;28;20207;-92
2022/06/12 07:49:06;;;;;;;19.13;5.53;;;;;;;19.82;66.46;102301.94;5033231;28;20276;-92
2022/06/12 07:51:31;;;;;;;16.80;5.60;;;;;;;20.05;67.83;102303.69;5030965;28;20026;-92
2022/06/12 07:53:57;;;;;;;18.42;5.80;;;;;;;21.03;63.14;102303.06;5009792;28;20515;-92
2022/06/12 07:56:25;;;;;;;17.45;5.63;;;;;;;21.68;60.11;102303.63;5012549;28;20064;-93
2022/06/12 07:58:51;;;;;;;15.60;5.57;;;;;;;21.96;58.32;102313.75;5030155;28;20037;-93
2022/06/12 08:01:20;;;;;;;20.52;5.40;;;;;;;22.01;63.09;102295.91;5013925;28;20099;-92
2022/06/12 08:03:45;;;;;;;17.33;5.78;;;;;;;22.76;60.11;102300.97;5033179;28;20022;-93
2022/06/12 08:06:11;;;;;;;17.58;5.47;;;;;;;23.57;54.07;102297.53;5015269;28;20033;-91
2022/06/12 08:08:39;;;;;;;15.68;5.53;;;;;;;23.37;53.59;102310.09;5030183;28;20025;-92
2022/06/12 08:11:04;;;;;;;16.27;5.70;;;;;;;22.81;57.79;102308.66;5035905;28;20036;-92
2022/06/12 08:13:30;;;;;;;18.35;5.40;;;;;;;22.50;55.23;102304.06;5032005;28;20394;-91
2022/06/12 08:15:57;;;;;;;19.20;5.65;;;;;;;22.34;58.48;102303.97;5020498;28;20616;-92
2022/06/12 08:18:23;;;;;;;20.23;5.68;;;;;;;22.12;60.40;102295.38;5033260;28;20021;-92
2022/06/12 08:20:54;;;;;;;16.73;5.50;;;;;;;21.95;58.07;102301.44;5014228;28;20067;-91
2022/06/12 08:23:27;;;;;;;18.48;5.88;;;;;;;22.09;60.06;102294.69;5030447;28;20021;-93
2022/06/12 08:25:59;;;;;;;18.10;5.80;;;;;;;22.26;58.61;102299.97;5012991;28;20025;-93
2022/06/12 08:28:28;;;;;;;19.55;5.43;;;;;;;22.14;59.23;102297.94;5014213;28;20054;-93
2022/06/12 08:30:54;;;;;;;16.88;5.03;;;;;;;22.10;58.80;102299.03;5039456;28;20056;-92
2022/06/12 08:33:20;;;;;;;13.77;4.60;;;;;;;21.86;58.61;102306.31;5020723;28;20406;-93
2022/06/12 08:35:46;;;;;;;17.10;4.80;;;;;;;21.77;60.15;102301.47;5040119;28;20069;-93
2022/06/12 08:38:15;;;;;;;16.98;4.95;;;;;;;21.74;58.39;102299.84;5011576;28;20045;-91
2022/06/12 08:40:53;;;;;;;17.48;5.22;;;;;;;22.21;60.86;102304.63;5012660;28;20453;-91
2022/06/12 08:43:45;;;;;;;16.85;4.70;;;;;;;22.59;57.45;102300.94;5019188;28;20356;-91
2022/06/12 08:46:32;;;;;;;18.15;5.20;;;;;;;22.65;59.21;102303.28;5028377;28;20068;-91
2022/06/12 08:49:06;;;;;;;19.20;5.38;;;;;;;22.76;56.15;102298.34;5024142;28;20024;-91
2022/06/12 08:51:45;;;;;;;13.93;4.30;;;;;;;22.88;59.21;102283.59;5018497;28;20112;-91
2022/06/12 08:54:16;;;;;;;18.45;4.35;;;;;;;22.88;58.41;102296.84;5010210;28;20057;-91
2022/06/12 08:56:54;;;;;;;15.50;4.45;;;;;;;22.92;60.32;102282.53;5029872;28;20041;-91
2022/06/12 08:59:34;;;;;;;17.60;4.95;;;;;;;22.98;57.15;102274.28;5020044;28;20048;-92
2022/06/12 09:02:05;;;;;;;13.70;4.55;;;;;;;23.04;57.54;102281.03;5029061;28;20128;-93
2022/06/12 09:04:31;;;;;;;16.40;4.88;;;;;;;23.09;55.79;102284.28;5028819;28;20529;-93
2022/06/12 09:07:12;;;;;;;14.63;4.82;;;;;;;23.27;58.12;102277.16;5025539;28;20104;-94
2022/06/12 09:10:04;;;;;;;14.82;4.78;;;;;;;23.71;57.84;102275.59;5027879;28;20083;-91
2022/06/12 09:12:48;;;;;;;16.88;4.63;;;;;;;23.80;55.50;102284.81;5031619;28;20100;-91
2022/06/12 09:15:45;;;;;;;18.47;4.63;;;;;;;24.01;54.90;102284.47;5007432;28;20025;-91
2022/06/12 09:18:16;;;;;;;14.25;4.30;;;;;;;24.00;50.29;102271.31;5003356;28;20033;-92
2022/06/12 09:20:55;;;;;;;12.82;3.97;;;;;;;23.86;54.23;102268.56;5011539;28;20040;-91
2022/06/12 09:23:46;;;;;;;14.35;3.83;;;;;;;23.58;52.68;102274.56;5024085;28;20037;-91
2022/06/12 09:26:24;;;;;;;14.52;4.25;;;;;;;23.38;56.56;102265.03;5032722;28;20033;-91
2022/06/12 09:29:05;;;;;;;14.07;4.20;;;;;;;23.49;54.57;102278.56;5017816;28;20021;-91
2022/06/12 09:31:38;;;;;;;12.63;3.80;;;;;;;23.53;53.95;102273.97;5032223;28;20053;-91
2022/06/12 09:34:10;;;;;;;14.52;4.07;;;;;;;23.68;50.10;102280.22;5014704;28;20033;-91
2022/06/12 09:38:18;;;;;;;12.52;3.88;;;;;;;23.70;52.31;102273.88;5007760;28;20028;-93
2022/06/12 09:40:01;;;;;;;;;;;;;;;23.75;53.36;102273.59;5032618;28;20037;-95
2022/06/12 09:42:38;;;;;;;10.50;3.40;;;;;;;23.16;50.67;102275.06;5043850;28;19909;-95
2022/06/12 09:45:21;;;;;;;12.05;3.35;;;;;;;22.93;52.82;102275.47;5033050;28;20032;-95
2022/06/12 09:47:56;;;;;;;11.20;3.50;;;;;;;22.57;51.24;102263.16;5016980;28;20075;-95
2022/06/12 09:50:46;;;;;;;13.85;3.30;;;;;;;22.44;52.41;102270.00;5030835;28;20029;-93
2022/06/12 09:53:50;;;;;;;11.38;3.40;;;;;;;22.58;54.27;102275.47;5007660;28;20030;-93
2022/06/12 09:56:30;;;;;;;9.85;3.15;;;;;;;22.74;52.91;102267.59;5006681;28;20491;-95
2022/06/12 09:59:11;;;;;;;11.23;3.42;;;;;;;23.07;52.82;102264.97;5020561;28;20037;-93
2022/06/12 10:01:41;;;;;;;15.88;3.53;;;;;;;23.28;52.00;102269.09;5012681;28;20115;-93
2022/06/12 10:04:09;;;;;;;12.98;4.10;;;;;;;23.65;50.70;102269.78;5028826;28;20025;-93
2022/06/12 10:06:43;;;;;;;14.73;4.70;;;;;;;23.70;50.21;102241.25;5011265;28;20095;-94
2022/06/12 10:09:15;;;;;;;11.98;4.40;;;;;;;23.85;51.25;102261.56;5030227;28;20021;-91
2022/06/12 10:11:55;;;;;;;16.60;5.00;;;;;;;24.17;49.40;102257.91;5031232;28;20064;-91
2022/06/12 10:14:28;;;;;;;11.75;3.33;;;;;;;24.34;48.88;102264.94;5030681;28;20025;-91
2022/06/12 10:17:00;;;;;;;12.60;3.60;;;;;;;24.36;46.24;102247.16;5024090;28;20025;-91
2022/06/12 10:19:47;;;;;;;14.10;4.75;;;;;;;24.28;48.75;102255.53;5036438;28;20285;-92
2022/06/12 10:22:27;;;;;;;15.80;5.35;;;;;;;24.11;48.80;102260.94;5012496;28;20470;-91
2022/06/12 10:24:56;;;;;;;16.85;5.43;;;;;;;24.13;48.10;102256.41;5008624;28;20036;-91
2022/06/12 10:27:23;;;;;;;12.80;4.40;;;;;;;24.24;49.73;102255.78;5023220;28;20036;-91
2022/06/12 10:30:00;;;;;;;13.77;4.63;;;;;;;23.94;48.27;102255.75;5042411;28;20055;-91
2022/06/12 10:32:46;;;;;;;14.48;4.82;;;;;;;23.72;50.49;102249.97;4999572;28;20542;-91
2022/06/12 10:35:22;;;;;;;15.07;4.80;;;;;;;23.72;49.93;102255.25;5014501;28;20120;-90
2022/06/12 10:37:50;;;;;;;14.82;5.07;;;;;;;23.67;50.27;102257.31;5001898;28;20080;-92
2022/06/12 10:40:27;;;;;;;17.90;4.50;;;;;;;23.80;53.06;102247.75;5023068;28;20025;-91
2022/06/12 10:43:02;;;;;;;15.15;4.60;;;;;;;23.75;49.19;102255.06;5007425;28;20048;-92
2022/06/12 10:45:32;;;;;;;13.35;4.18;;;;;;;23.71;49.56;102249.09;5029860;28;20036;-91
2022/06/12 10:48:03;;;;;;;13.68;3.72;;;;;;;23.84;50.84;102246.63;5030644;28;20029;-91
2022/06/12 10:50:34;;;;;;;13.73;3.65;;;;;;;24.01;46.47;102254.47;5033351;28;20021;-91
2022/06/12 10:53:15;;;;;;;12.25;3.55;;;;;;;24.12;45.63;102244.09;5046547;28;20033;-91
2022/06/12 10:56:04;;;;;;;16.38;3.75;;;;;;;24.24;47.59;102247.84;5018428;28;20028;-90
2022/06/12 10:59:00;;;;;;;7.78;3.10;;;;;;;24.14;46.50;102247.50;5035419;28;20075;-91
2022/06/12 11:02:06;;;;;;;12.15;3.33;;;;;;;24.03;48.50;102241.97;5018117;28;20053;-91
2022/06/12 11:05:08;;;;;;;10.02;3.20;;;;;;;24.05;49.26;102239.22;5028802;28;20040;-91
2022/06/12 11:07:55;;;;;;;11.98;3.67;;;;;;;24.15;46.35;102232.47;5009185;28;20602;-91
2022/06/12 11:10:38;;;;;;;12.23;3.20;;;;;;;24.11;47.33;102234.44;5025932;28;20045;-90
2022/06/12 11:13:47;;;;;;;10.47;3.80;;;;;;;24.14;47.15;102236.91;5010930;28;20113;-90
2022/06/12 11:16:16;;;;;;;9.57;3.13;;;;;;;23.99;45.40;102233.34;5028802;28;20051;-91
2022/06/12 11:19:11;;;;;;;13.63;3.20;;;;;;;24.09;47.75;102233.66;5030257;28;20098;-91
2022/06/12 11:22:04;;;;;;;11.60;3.40;;;;;;;24.20;46.12;102225.97;5028650;28;20398;-91
2022/06/12 11:24:39;;;;;;;13.73;3.50;;;;;;;24.20;45.76;102225.97;5029805;28;20033;-91
2022/06/12 11:27:22;;;;;;;12.02;3.03;;;;;;;24.36;43.99;102231.25;5014813;28;20394;-90
2022/06/12 11:30:21;;;;;;;12.32;3.53;;;;;;;24.33;45.50;102226.09;5012565;28;20041;-91
2022/06/12 11:32:57;;;;;;;9.90;3.25;;;;;;;23.98;44.67;102234.28;5030140;28;20045;-91
2022/06/12 11:35:51;;;;;;;10.00;3.50;;;;;;;23.72;45.67;102228.78;5031263;28;20032;-90
2022/06/12 11:38:45;;;;;;;11.55;3.35;;;;;;;23.44;46.23;102225.00;5029510;28;20113;-90
2022/06/12 11:41:41;;;;;;;11.10;3.10;;;;;;;23.39;46.15;102227.06;5025310;28;20036;-91
2022/06/12 11:44:45;;;;;;;11.95;3.88;;;;;;;23.52;45.51;102224.59;5008378;28;20124;-90
2022/06/12 11:47:50;;;;;;;11.43;3.33;;;;;;;23.55;45.20;102222.63;5006716;28;20575;-90
2022/06/12 11:50:43;;;;;;;11.15;2.88;;;;;;;23.45;48.12;102216.13;5018440;28;20482;-93
2022/06/12 11:53:36;;;;;;;8.85;3.47;;;;;;;23.30;47.20;102216.97;5026845;28;20113;-93
2022/06/12 11:56:15;;;;;;;12.55;3.22;;;;;;;22.94;49.26;102213.66;5008164;28;20037;-92
2022/06/12 11:58:51;;;;;;;12.75;3.55;;;;;;;22.87;49.57;102214.94;5031411;28;20058;-91
2022/06/12 12:01:46;;;;;;;12.18;3.40;;;;;;;22.96;50.02;102212.66;5033714;28;20072;-92
2022/06/12 12:04:31;;;;;;;12.68;3.47;;;;;;;22.98;49.46;102199.34;5027550;28;20037;-91